createdAt,value
2018-03-21T00:00:35.409Z,-0.29
2018-03-21T00:01:35.330Z,-0.32
2018-03-21T00:02:35.244Z,-0.32
2018-03-21T00:03:35.167Z,-0.32
2018-03-21T00:04:35.079Z,-0.35
2018-03-21T00:05:35.003Z,-0.32
2018-03-21T00:06:34.910Z,-0.37
2018-03-21T00:07:34.841Z,-0.37
2018-03-21T00:08:34.751Z,-0.37
2018-03-21T00:09:34.677Z,-0.35
2018-03-21T00:10:34.584Z,-0.25
2018-03-21T00:11:34.504Z,-0.33
2018-03-21T00:12:34.462Z,-0.38
2018-03-21T00:13:34.338Z,-0.35
2018-03-21T00:14:34.252Z,-0.32
2018-03-21T00:15:34.173Z,-0.28
2018-03-21T00:16:34.083Z,-0.33
2018-03-21T00:17:34.010Z,-0.25
2018-03-21T00:18:33.916Z,-0.30
2018-03-21T00:19:33.842Z,-0.33
2018-03-21T00:20:33.749Z,-0.37
2018-03-21T00:21:33.674Z,-0.40
2018-03-21T00:22:33.590Z,-0.32
2018-03-21T00:23:33.511Z,-0.33
2018-03-21T00:24:33.419Z,-0.40
2018-03-21T00:25:33.351Z,-0.35
2018-03-21T00:26:33.251Z,-0.35
2018-03-21T00:27:33.177Z,-0.40
2018-03-21T00:28:33.085Z,-0.32
2018-03-21T00:29:33.009Z,-0.37
2018-03-21T00:30:32.928Z,-0.29
2018-03-21T00:31:32.851Z,-0.37
2018-03-21T00:32:32.762Z,-0.35
2018-03-21T00:33:32.682Z,-0.37
2018-03-21T00:34:32.589Z,-0.41
2018-03-21T00:35:32.508Z,-0.29
2018-03-21T00:36:32.426Z,-0.37
2018-03-21T00:37:32.345Z,-0.35
2018-03-21T00:38:32.257Z,-0.43
2018-03-21T00:39:32.180Z,-0.47
2018-03-21T00:40:32.087Z,-0.47
2018-03-21T00:41:32.013Z,-0.58
2018-03-21T00:42:31.922Z,-0.58
2018-03-21T00:43:31.845Z,-0.59
2018-03-21T00:44:31.758Z,-0.56
2018-03-21T00:45:31.677Z,-0.54
2018-03-21T00:46:31.592Z,-0.56
2018-03-21T00:47:31.513Z,-0.54
2018-03-21T00:48:31.426Z,-0.53
2018-03-21T00:49:31.349Z,-0.58
2018-03-21T00:50:31.258Z,-0.58
2018-03-21T00:51:31.188Z,-0.56
2018-03-21T00:52:31.091Z,-0.54
2018-03-21T00:53:31.015Z,-0.64
2018-03-21T00:54:30.938Z,-0.54
2018-03-21T00:55:30.850Z,-0.68
2018-03-21T00:56:30.760Z,-0.68
2018-03-21T00:57:30.688Z,-0.69
2018-03-21T00:58:30.599Z,-0.71
2018-03-21T00:59:30.520Z,-0.82
2018-03-21T01:00:30.425Z,-0.72
2018-03-21T01:01:30.355Z,-0.79
2018-03-21T01:02:30.261Z,-0.79
2018-03-21T01:03:30.182Z,-0.83
2018-03-21T01:04:30.092Z,-0.84
2018-03-21T01:05:30.017Z,-0.87
2018-03-21T01:06:29.927Z,-0.82
2018-03-21T01:07:29.851Z,-0.93
2018-03-21T01:08:29.758Z,-0.95
2018-03-21T01:09:29.688Z,-0.86
2018-03-21T01:10:29.596Z,-0.90
2018-03-21T01:11:29.519Z,-0.99
2018-03-21T01:12:29.429Z,-1.02
2018-03-21T01:13:29.350Z,-0.90
2018-03-21T01:14:29.260Z,-0.96
2018-03-21T01:15:29.182Z,-1.03
2018-03-21T01:16:29.092Z,-1.03
2018-03-21T01:17:29.021Z,-1.02
2018-03-21T01:18:28.926Z,-0.99
2018-03-21T01:19:28.849Z,-1.03
2018-03-21T01:20:28.761Z,-1.01
2018-03-21T01:21:28.681Z,-0.99
2018-03-21T01:22:28.594Z,-1.06
2018-03-21T01:23:28.520Z,-1.01
2018-03-21T01:24:28.425Z,-1.02
2018-03-21T01:25:28.350Z,-0.96
2018-03-21T01:26:28.260Z,-1.03
2018-03-21T01:27:28.186Z,-1.02
2018-03-21T01:28:28.093Z,-1.08
2018-03-21T01:29:28.018Z,-1.05
2018-03-21T01:30:27.925Z,-1.13
2018-03-21T01:31:27.850Z,-1.20
2018-03-21T01:32:27.758Z,-1.19
2018-03-21T01:33:27.684Z,-1.14
2018-03-21T01:34:27.590Z,-1.24
2018-03-21T01:35:27.519Z,-1.24
2018-03-21T01:36:27.422Z,-1.26
2018-03-21T01:37:27.350Z,-1.27
2018-03-21T01:38:27.257Z,-1.34
2018-03-21T01:39:27.180Z,-1.35
2018-03-21T01:40:27.094Z,-1.40
2018-03-21T01:41:27.013Z,-1.52
2018-03-21T01:42:26.923Z,-1.48
2018-03-21T01:43:26.852Z,-1.52
2018-03-21T01:44:26.762Z,-1.50
2018-03-21T01:45:26.677Z,-1.52
2018-03-21T01:46:26.589Z,-1.59
2018-03-21T01:47:26.513Z,-1.56
2018-03-21T01:48:26.422Z,-1.59
2018-03-21T01:49:26.346Z,-1.60
2018-03-21T01:50:26.257Z,-1.59
2018-03-21T01:51:26.179Z,-1.63
2018-03-21T01:52:26.088Z,-1.56
2018-03-21T01:53:26.012Z,-1.59
2018-03-21T01:54:25.929Z,-1.65
2018-03-21T01:55:25.846Z,-1.68
2018-03-21T01:56:25.755Z,-1.70
2018-03-21T01:57:25.676Z,-1.73
2018-03-21T01:58:25.586Z,-1.70
2018-03-21T01:59:25.536Z,-1.84
2018-03-21T02:00:25.422Z,-1.84
2018-03-21T02:01:25.342Z,-1.94
2018-03-21T02:02:25.252Z,-1.92
2018-03-21T02:03:25.186Z,-1.95
2018-03-21T02:04:25.091Z,-2.09
2018-03-21T02:05:25.007Z,-2.09
2018-03-21T02:06:24.916Z,-2.07
2018-03-21T02:07:24.843Z,-2.02
2018-03-21T02:08:24.750Z,-2.02
2018-03-21T02:09:24.675Z,-1.94
2018-03-21T02:10:24.581Z,-1.98
2018-03-21T02:11:24.504Z,-2.07
2018-03-21T02:12:24.413Z,-2.07
2018-03-21T02:13:24.341Z,-2.15
2018-03-21T02:14:24.249Z,-2.10
2018-03-21T02:15:24.169Z,-2.15
2018-03-21T02:16:24.080Z,-2.12
2018-03-21T02:17:24.000Z,-2.07
2018-03-21T02:18:23.911Z,-2.10
2018-03-21T02:19:23.834Z,-2.07
2018-03-21T02:20:23.740Z,-2.06
2018-03-21T02:21:23.671Z,-2.12
2018-03-21T02:22:23.574Z,-2.16
2018-03-21T02:23:23.495Z,-2.09
2018-03-21T02:24:23.411Z,-2.12
2018-03-21T02:25:23.331Z,-2.12
2018-03-21T02:26:23.241Z,-2.16
2018-03-21T02:27:23.161Z,-2.07
2018-03-21T02:28:23.083Z,-2.16
2018-03-21T02:29:23.017Z,-2.12
2018-03-21T02:30:22.903Z,-2.12
2018-03-21T02:31:22.825Z,-2.13
2018-03-21T02:32:22.736Z,-2.12
2018-03-21T02:33:22.661Z,-2.13
2018-03-21T02:34:22.566Z,-2.02
2018-03-21T02:35:22.489Z,-2.12
2018-03-21T02:36:22.400Z,-2.12
2018-03-21T02:37:22.324Z,-2.12
2018-03-21T02:38:22.237Z,-2.12
2018-03-21T02:39:22.155Z,-2.04
2018-03-21T02:40:22.062Z,-2.13
2018-03-21T02:41:21.985Z,-2.10
2018-03-21T02:42:21.896Z,-2.16
2018-03-21T02:43:21.814Z,-2.13
2018-03-21T02:44:21.736Z,-2.15
2018-03-21T02:45:21.643Z,-2.09
2018-03-21T02:46:21.572Z,-2.09
2018-03-21T02:47:21.480Z,-2.13
2018-03-21T02:48:21.400Z,-2.10
2018-03-21T02:49:21.308Z,-2.16
2018-03-21T02:50:21.229Z,-2.20
2018-03-21T02:51:21.140Z,-2.32
2018-03-21T02:52:21.061Z,-2.27
2018-03-21T02:53:20.970Z,-2.45
2018-03-21T02:54:20.891Z,-2.30
2018-03-21T02:55:20.800Z,-2.49
2018-03-21T02:56:20.726Z,-2.56
2018-03-21T02:57:20.631Z,-2.52
2018-03-21T02:58:20.554Z,-2.57
2018-03-21T02:59:20.470Z,-2.64
2018-03-21T03:00:20.389Z,-2.67
2018-03-21T03:01:20.294Z,-2.70
2018-03-21T03:02:20.221Z,-2.71
2018-03-21T03:03:20.139Z,-2.71
2018-03-21T03:04:20.053Z,-2.67
2018-03-21T03:05:19.957Z,-2.71
2018-03-21T03:06:19.884Z,-2.67
2018-03-21T03:07:19.791Z,-2.80
2018-03-21T03:08:19.716Z,-2.70
2018-03-21T03:09:19.619Z,-2.73
2018-03-21T03:10:19.547Z,-2.74
2018-03-21T03:11:19.455Z,-2.73
2018-03-21T03:12:19.380Z,-2.78
2018-03-21T03:13:19.284Z,-2.82
2018-03-21T03:14:19.207Z,-2.83
2018-03-21T03:15:19.114Z,-2.65
2018-03-21T03:16:19.048Z,-2.78
2018-03-21T03:17:18.945Z,-2.70
2018-03-21T03:18:18.872Z,-2.68
2018-03-21T03:19:18.775Z,-2.80
2018-03-21T03:20:18.713Z,-2.75
2018-03-21T03:21:18.612Z,-2.68
2018-03-21T03:22:18.536Z,-2.67
2018-03-21T03:23:18.441Z,-2.62
2018-03-21T03:24:18.366Z,-2.73
2018-03-21T03:25:18.272Z,-2.70
2018-03-21T03:26:18.194Z,-2.71
2018-03-21T03:27:18.100Z,-2.71
2018-03-21T03:28:18.028Z,-2.67
2018-03-21T03:29:17.939Z,-2.70
2018-03-21T03:30:17.858Z,-2.68
2018-03-21T03:31:17.765Z,-2.70
2018-03-21T03:32:17.684Z,-2.75
2018-03-21T03:33:17.635Z,-2.74
2018-03-21T03:34:17.517Z,-2.70
2018-03-21T03:35:17.429Z,-2.73
2018-03-21T03:36:17.351Z,-2.70
2018-03-21T03:37:17.259Z,-2.73
2018-03-21T03:38:17.234Z,-2.73
2018-03-21T03:39:17.087Z,-2.73
2018-03-21T03:40:17.014Z,-2.70
2018-03-21T03:41:16.918Z,-2.82
2018-03-21T03:42:16.841Z,-2.80
2018-03-21T03:43:16.749Z,-2.77
2018-03-21T03:44:16.672Z,-2.85
2018-03-21T03:45:16.585Z,-2.88
2018-03-21T03:46:16.505Z,-2.89
2018-03-21T03:47:16.414Z,-2.98
2018-03-21T03:48:16.338Z,-2.99
2018-03-21T03:49:16.243Z,-3.06
2018-03-21T03:50:16.165Z,-3.03
2018-03-21T03:51:16.074Z,-3.09
2018-03-21T03:52:15.999Z,-3.20
2018-03-21T03:53:15.907Z,-3.13
2018-03-21T03:54:15.830Z,-3.24
2018-03-21T03:55:15.736Z,-3.25
2018-03-21T03:56:15.661Z,-3.17
2018-03-21T03:57:15.564Z,-3.16
2018-03-21T03:58:15.490Z,-3.20
2018-03-21T03:59:15.412Z,-3.28
2018-03-21T04:00:15.323Z,-3.35
2018-03-21T04:01:15.232Z,-3.37
2018-03-21T04:02:15.152Z,-3.37
2018-03-21T04:03:15.059Z,-3.46
2018-03-21T04:04:14.982Z,-3.39
2018-03-21T04:05:14.890Z,-3.48
2018-03-21T04:06:14.812Z,-3.50
2018-03-21T04:07:14.722Z,-3.43
2018-03-21T04:08:14.642Z,-3.50
2018-03-21T04:09:14.555Z,-3.58
2018-03-21T04:10:14.474Z,-3.53
2018-03-21T04:11:14.381Z,-3.61
2018-03-21T04:12:14.304Z,-3.55
2018-03-21T04:13:14.212Z,-3.58
2018-03-21T04:14:14.134Z,-3.57
2018-03-21T04:15:14.043Z,-3.61
2018-03-21T04:16:13.964Z,-3.66
2018-03-21T04:17:13.876Z,-3.68
2018-03-21T04:18:13.793Z,-3.67
2018-03-21T04:19:13.701Z,-3.82
2018-03-21T04:20:13.627Z,-3.79
2018-03-21T04:21:13.537Z,-3.80
2018-03-21T04:22:13.458Z,-3.89
2018-03-21T04:23:13.406Z,-3.86
2018-03-21T04:24:13.284Z,-3.92
2018-03-21T04:25:13.193Z,-3.93
2018-03-21T04:26:13.117Z,-3.90
2018-03-21T04:27:13.024Z,-3.93
2018-03-21T04:28:12.950Z,-3.97
2018-03-21T04:29:12.853Z,-4.03
2018-03-21T04:30:12.775Z,-4.14
2018-03-21T04:31:12.685Z,-4.14
2018-03-21T04:32:12.608Z,-4.11
2018-03-21T04:33:12.514Z,-4.07
2018-03-21T04:34:12.437Z,-4.25
2018-03-21T04:35:12.344Z,-4.24
2018-03-21T04:36:12.264Z,-4.18
2018-03-21T04:37:12.174Z,-4.21
2018-03-21T04:38:12.092Z,-4.29
2018-03-21T04:39:12.004Z,-4.28
2018-03-21T04:40:11.934Z,-4.36
2018-03-21T04:41:11.834Z,-4.29
2018-03-21T04:42:11.755Z,-4.33
2018-03-21T04:43:11.664Z,-4.43
2018-03-21T04:44:11.585Z,-4.47
2018-03-21T04:45:11.493Z,-4.40
2018-03-21T04:46:11.444Z,-4.47
2018-03-21T04:47:11.322Z,-4.39
2018-03-21T04:48:11.259Z,-4.47
2018-03-21T04:49:11.150Z,-4.51
2018-03-21T04:50:11.166Z,-4.55
2018-03-21T04:51:10.982Z,-4.47
2018-03-21T04:52:10.972Z,-4.54
2018-03-21T04:53:10.813Z,-4.49
2018-03-21T04:54:10.782Z,-4.51
2018-03-21T04:55:10.652Z,-4.57
2018-03-21T04:56:10.594Z,-4.57
2018-03-21T04:57:10.469Z,-4.55
2018-03-21T04:58:10.399Z,-4.54
2018-03-21T04:59:10.301Z,-4.55
2018-03-21T05:00:10.314Z,-4.58
2018-03-21T05:01:10.129Z,-4.63
2018-03-21T05:02:10.119Z,-4.63
2018-03-21T05:03:09.961Z,-4.58
2018-03-21T05:04:09.880Z,-4.54
2018-03-21T05:05:09.787Z,-4.60
2018-03-21T05:06:09.737Z,-4.60
2018-03-21T05:07:09.614Z,-4.60
2018-03-21T05:08:09.646Z,-4.64
2018-03-21T05:09:09.447Z,-4.60
2018-03-21T05:10:09.453Z,-4.63
2018-03-21T05:11:09.275Z,-4.61
2018-03-21T05:12:09.264Z,-4.61
2018-03-21T05:13:09.103Z,-4.65
2018-03-21T05:14:09.069Z,-4.75
2018-03-21T05:15:08.931Z,-4.72
2018-03-21T05:16:08.884Z,-4.74
2018-03-21T05:17:08.761Z,-4.72
2018-03-21T05:18:08.790Z,-4.67
2018-03-21T05:19:08.590Z,-4.75
2018-03-21T05:20:08.527Z,-4.75
2018-03-21T05:21:08.417Z,-4.74
2018-03-21T05:22:08.348Z,-4.76
2018-03-21T05:23:08.247Z,-4.86
2018-03-21T05:24:08.172Z,-4.79
2018-03-21T05:25:08.076Z,-4.85
2018-03-21T05:26:08.023Z,-4.90
2018-03-21T05:27:07.903Z,-4.89
2018-03-21T05:28:07.935Z,-4.92
2018-03-21T05:29:07.735Z,-4.94
2018-03-21T05:30:07.741Z,-4.93
2018-03-21T05:31:07.567Z,-4.92
2018-03-21T05:32:07.554Z,-4.96
2018-03-21T05:33:07.391Z,-4.90
2018-03-21T05:34:07.316Z,-4.94
2018-03-21T05:35:07.217Z,-4.97
2018-03-21T05:36:07.166Z,-4.92
2018-03-21T05:37:07.050Z,-4.86
2018-03-21T05:38:06.971Z,-4.92
2018-03-21T05:39:06.877Z,-4.90
2018-03-21T05:40:06.888Z,-4.89
2018-03-21T05:41:06.704Z,-4.90
2018-03-21T05:42:06.627Z,-4.90
2018-03-21T05:43:06.614Z,-5.00
2018-03-21T05:44:06.457Z,-4.99
2018-03-21T05:45:06.363Z,-4.94
2018-03-21T05:46:06.284Z,-4.97
2018-03-21T05:47:06.272Z,-4.90
2018-03-21T05:48:06.158Z,-4.90
2018-03-21T05:49:06.020Z,-4.84
2018-03-21T05:50:06.033Z,-4.86
2018-03-21T05:51:05.849Z,-4.79
2018-03-21T05:52:05.844Z,-4.79
2018-03-21T05:53:05.676Z,-4.74
2018-03-21T05:54:05.600Z,-4.63
2018-03-21T05:55:05.506Z,-4.63
2018-03-21T05:56:05.426Z,-4.55
2018-03-21T05:57:05.332Z,-4.55
2018-03-21T05:58:05.260Z,-4.54
2018-03-21T05:59:05.162Z,-4.54
2018-03-21T06:00:05.178Z,-4.58
2018-03-21T06:01:04.993Z,-4.58
2018-03-21T06:02:04.917Z,-4.55
2018-03-21T06:03:04.820Z,-4.47
2018-03-21T06:04:04.751Z,-4.53
2018-03-21T06:05:04.655Z,-4.47
2018-03-21T06:06:04.570Z,-4.51
2018-03-21T06:07:04.477Z,-4.47
2018-03-21T06:08:04.408Z,-4.49
2018-03-21T06:09:04.309Z,-4.42
2018-03-21T06:10:04.226Z,-4.43
2018-03-21T06:11:04.140Z,-4.45
2018-03-21T06:12:04.063Z,-4.47
2018-03-21T06:13:03.962Z,-4.36
2018-03-21T06:14:03.936Z,-4.37
2018-03-21T06:15:03.793Z,-4.36
2018-03-21T06:16:03.745Z,-4.26
2018-03-21T06:17:03.617Z,-4.19
2018-03-21T06:18:03.547Z,-4.24
2018-03-21T06:19:03.450Z,-4.17
2018-03-21T06:20:03.370Z,-4.15
2018-03-21T06:21:03.276Z,-4.11
2018-03-21T06:22:03.271Z,-4.06
2018-03-21T06:23:03.104Z,-3.98
2018-03-21T06:24:03.078Z,-3.93
2018-03-21T06:25:02.931Z,-3.82
2018-03-21T06:26:02.890Z,-3.75
2018-03-21T06:27:02.766Z,-3.70
2018-03-21T06:28:02.694Z,-3.61
2018-03-21T06:29:02.595Z,-3.45
2018-03-21T06:30:02.605Z,-3.49
2018-03-21T06:31:02.421Z,-3.46
2018-03-21T06:32:02.412Z,-3.37
2018-03-21T06:33:02.248Z,-3.32
2018-03-21T06:34:02.170Z,-3.25
2018-03-21T06:35:02.087Z,-3.13
2018-03-21T06:36:02.090Z,-3.09
2018-03-21T06:37:01.911Z,-3.11
2018-03-21T06:38:01.859Z,-3.13
2018-03-21T06:39:01.736Z,-3.17
2018-03-21T06:40:01.753Z,-3.07
2018-03-21T06:41:01.570Z,-2.95
2018-03-21T06:42:01.560Z,-2.96
2018-03-21T06:43:01.396Z,-2.99
2018-03-21T06:44:01.366Z,-2.86
2018-03-21T06:45:01.226Z,-2.86
2018-03-21T06:46:01.176Z,-2.74
2018-03-21T06:47:01.058Z,-2.73
2018-03-21T06:48:01.087Z,-2.70
2018-03-21T06:49:00.883Z,-2.71
2018-03-21T06:50:00.948Z,-2.67
2018-03-21T06:51:00.717Z,-2.60
2018-03-21T06:52:00.699Z,-2.52
2018-03-21T06:53:00.546Z,-2.36
2018-03-21T06:54:00.509Z,-2.41
2018-03-21T06:55:00.376Z,-2.32
2018-03-21T06:56:00.316Z,-2.36
2018-03-21T06:57:00.204Z,-2.36
2018-03-21T06:58:00.228Z,-2.25
2018-03-21T06:59:00.035Z,-2.25
2018-03-21T07:00:00.036Z,-2.16
2018-03-21T07:00:59.869Z,-2.13
2018-03-21T07:01:59.847Z,-2.07
2018-03-21T07:02:59.696Z,-2.10
2018-03-21T07:03:59.657Z,-1.94
2018-03-21T07:04:59.525Z,-1.94
2018-03-21T07:06:05.304Z,-1.88
2018-03-21T07:06:59.364Z,-1.94
2018-03-21T07:07:59.374Z,-1.83
2018-03-21T07:08:59.187Z,-1.77
2018-03-21T07:09:59.182Z,-1.73
2018-03-21T07:10:59.017Z,-1.70
2018-03-21T07:11:58.990Z,-1.66
2018-03-21T07:12:58.850Z,-1.60
2018-03-21T07:13:58.799Z,-1.58
2018-03-21T07:14:58.682Z,-1.59
2018-03-21T07:15:58.712Z,-1.42
2018-03-21T07:16:58.515Z,-1.41
2018-03-21T07:17:58.519Z,-1.38
2018-03-21T07:18:58.346Z,-1.32
2018-03-21T07:19:58.324Z,-1.27
2018-03-21T07:20:58.172Z,-1.27
2018-03-21T07:21:58.140Z,-1.19
2018-03-21T07:22:58.009Z,-1.14
2018-03-21T07:23:57.943Z,-1.03
2018-03-21T07:24:57.841Z,-1.03
2018-03-21T07:25:57.760Z,-0.87
2018-03-21T07:26:57.672Z,-0.82
2018-03-21T07:27:57.597Z,-0.83
2018-03-21T07:28:57.504Z,-0.80
2018-03-21T07:29:57.468Z,-0.77
2018-03-21T07:30:57.337Z,-0.86
2018-03-21T07:31:57.277Z,-0.80
2018-03-21T07:32:57.166Z,-0.66
2018-03-21T07:33:57.187Z,-0.69
2018-03-21T07:34:57.001Z,-0.66
2018-03-21T07:35:56.997Z,-0.56
2018-03-21T07:36:56.832Z,-0.68
2018-03-21T07:37:56.804Z,-0.61
2018-03-21T07:38:56.663Z,-0.59
2018-03-21T07:39:56.613Z,-0.46
2018-03-21T07:40:56.496Z,-0.38
2018-03-21T07:41:56.526Z,-0.11
2018-03-21T07:42:56.332Z,-0.15
2018-03-21T07:43:56.333Z,-0.08
2018-03-21T07:44:56.164Z,-0.02
2018-03-21T07:45:56.145Z,0.01
2018-03-21T07:46:55.998Z,0.17
2018-03-21T07:47:55.950Z,0.42
2018-03-21T07:48:55.832Z,0.65
2018-03-21T07:49:55.862Z,0.77
2018-03-21T07:50:55.666Z,0.83
2018-03-21T07:51:55.667Z,1.05
2018-03-21T07:52:55.496Z,1.23
2018-03-21T07:53:55.475Z,1.28
2018-03-21T07:54:55.338Z,1.41
2018-03-21T07:55:55.283Z,1.37
2018-03-21T07:56:55.166Z,1.34
2018-03-21T07:57:55.092Z,1.25
2018-03-21T07:58:55.006Z,1.37
2018-03-21T07:59:55.000Z,1.25
2018-03-21T08:00:54.834Z,1.19
2018-03-21T08:01:54.818Z,1.11
2018-03-21T08:02:54.671Z,1.16
2018-03-21T08:03:54.598Z,1.19
2018-03-21T08:04:54.501Z,1.23
2018-03-21T08:05:54.428Z,1.19
2018-03-21T08:06:54.343Z,1.05
2018-03-21T08:07:54.264Z,0.98
2018-03-21T08:08:54.174Z,1.04
2018-03-21T08:09:54.106Z,0.97
2018-03-21T08:10:54.016Z,0.90
2018-03-21T08:11:53.935Z,1.00
2018-03-21T08:12:53.844Z,1.07
2018-03-21T08:13:53.770Z,1.19
2018-03-21T08:14:53.684Z,1.48
2018-03-21T08:15:53.651Z,1.62
2018-03-21T08:16:53.514Z,1.77
2018-03-21T08:17:53.444Z,1.65
2018-03-21T08:18:53.351Z,1.59
2018-03-21T08:19:53.280Z,1.54
2018-03-21T08:20:53.193Z,1.55
2018-03-21T08:21:53.112Z,1.59
2018-03-21T08:22:53.026Z,1.52
2018-03-21T08:23:52.950Z,1.48
2018-03-21T08:24:52.861Z,1.84
2018-03-21T08:25:52.781Z,2.02
2018-03-21T08:26:52.696Z,2.44
2018-03-21T08:27:52.616Z,2.62
2018-03-21T08:28:52.531Z,2.84
2018-03-21T08:29:52.459Z,2.85
2018-03-21T08:30:52.369Z,2.57
2018-03-21T08:31:52.296Z,2.50
2018-03-21T08:32:52.207Z,2.73
2018-03-21T08:33:52.131Z,2.50
2018-03-21T08:34:52.045Z,2.35
2018-03-21T08:35:51.973Z,2.26
2018-03-21T08:36:51.879Z,2.05
2018-03-21T08:37:51.804Z,2.10
2018-03-21T08:38:51.719Z,2.14
2018-03-21T08:39:51.645Z,2.01
2018-03-21T08:40:51.550Z,1.95
2018-03-21T08:41:51.479Z,1.91
2018-03-21T08:42:51.389Z,1.83
2018-03-21T08:43:51.317Z,1.84
2018-03-21T08:44:51.234Z,1.79
2018-03-21T08:45:51.156Z,1.64
2018-03-21T08:46:51.067Z,1.62
2018-03-21T08:47:50.990Z,1.59
2018-03-21T08:48:50.904Z,1.69
2018-03-21T08:49:50.828Z,1.87
2018-03-21T08:50:50.740Z,2.19
2018-03-21T08:51:50.667Z,2.53
2018-03-21T08:52:50.576Z,2.55
2018-03-21T08:53:50.505Z,2.68
2018-03-21T08:54:50.415Z,2.55
2018-03-21T08:55:50.335Z,2.55
2018-03-21T08:56:50.253Z,2.81
2018-03-21T08:57:50.181Z,2.92
2018-03-21T08:58:50.092Z,3.07
2018-03-21T08:59:50.017Z,3.32
2018-03-21T09:00:49.932Z,3.56
2018-03-21T09:01:49.853Z,3.77
2018-03-21T09:02:49.766Z,4.07
2018-03-21T09:03:49.693Z,4.00
2018-03-21T09:04:49.608Z,3.89
2018-03-21T09:05:49.533Z,3.74
2018-03-21T09:06:49.445Z,3.69
2018-03-21T09:07:49.370Z,3.54
2018-03-21T09:08:49.283Z,3.69
2018-03-21T09:09:49.213Z,3.61
2018-03-21T09:10:49.122Z,3.72
2018-03-21T09:11:49.050Z,3.64
2018-03-21T09:12:48.961Z,3.56
2018-03-21T09:13:48.890Z,3.64
2018-03-21T09:14:48.805Z,3.87
2018-03-21T09:15:48.764Z,4.16
2018-03-21T09:16:48.640Z,4.28
2018-03-21T09:17:48.573Z,4.40
2018-03-21T09:18:48.481Z,4.54
2018-03-21T09:19:48.413Z,4.73
2018-03-21T09:20:48.321Z,4.76
2018-03-21T09:21:48.246Z,4.87
2018-03-21T09:22:48.165Z,5.00
2018-03-21T09:23:48.091Z,5.18
2018-03-21T09:24:48.005Z,5.29
2018-03-21T09:25:47.929Z,5.31
2018-03-21T09:26:47.843Z,5.41
2018-03-21T09:27:47.770Z,5.32
2018-03-21T09:28:47.693Z,5.18
2018-03-21T09:29:47.612Z,5.29
2018-03-21T09:30:47.533Z,5.26
2018-03-21T09:31:47.450Z,5.41
2018-03-21T09:32:47.368Z,5.59
2018-03-21T09:33:47.301Z,5.35
2018-03-21T09:34:47.213Z,5.41
2018-03-21T09:35:47.142Z,5.52
2018-03-21T09:36:47.050Z,5.67
2018-03-21T09:37:46.982Z,5.78
2018-03-21T09:38:46.897Z,5.89
2018-03-21T09:39:46.826Z,6.04
2018-03-21T09:40:46.739Z,6.07
2018-03-21T09:41:46.670Z,6.14
2018-03-21T09:42:46.579Z,6.17
2018-03-21T09:43:46.512Z,6.15
2018-03-21T09:44:46.429Z,5.97
2018-03-21T09:45:46.356Z,5.93
2018-03-21T09:46:46.265Z,5.88
2018-03-21T09:47:46.202Z,5.88
2018-03-21T09:48:46.114Z,5.95
2018-03-21T09:49:46.048Z,5.80
2018-03-21T09:50:45.964Z,6.03
2018-03-21T09:51:45.889Z,6.08
2018-03-21T09:52:45.807Z,6.24
2018-03-21T09:53:45.734Z,6.33
2018-03-21T09:54:45.650Z,6.41
2018-03-21T09:55:45.581Z,6.44
2018-03-21T09:56:45.493Z,6.47
2018-03-21T09:57:45.422Z,6.59
2018-03-21T09:58:45.338Z,6.44
2018-03-21T09:59:45.271Z,6.42
2018-03-21T10:00:45.182Z,6.26
2018-03-21T10:01:45.116Z,6.32
2018-03-21T10:02:45.028Z,6.14
2018-03-21T10:03:44.963Z,6.08
2018-03-21T10:04:44.875Z,6.03
2018-03-21T10:05:44.806Z,6.26
2018-03-21T10:06:44.720Z,6.30
2018-03-21T10:07:44.653Z,6.34
2018-03-21T10:08:44.585Z,6.44
2018-03-21T10:09:44.494Z,6.47
2018-03-21T10:10:44.411Z,6.50
2018-03-21T10:11:44.341Z,6.44
2018-03-21T10:12:44.258Z,6.57
2018-03-21T10:13:44.186Z,6.62
2018-03-21T10:14:44.103Z,6.69
2018-03-21T10:15:44.042Z,6.76
2018-03-21T10:16:43.948Z,6.68
2018-03-21T10:17:43.886Z,6.69
2018-03-21T10:18:43.795Z,6.88
2018-03-21T10:19:43.724Z,7.02
2018-03-21T10:20:43.643Z,7.05
2018-03-21T10:21:43.571Z,7.19
2018-03-21T10:22:43.487Z,7.05
2018-03-21T10:23:43.420Z,7.12
2018-03-21T10:24:43.340Z,7.13
2018-03-21T10:25:43.267Z,7.02
2018-03-21T10:26:43.188Z,6.91
2018-03-21T10:27:43.108Z,6.90
2018-03-21T10:28:43.026Z,6.91
2018-03-21T10:29:42.966Z,6.99
2018-03-21T10:30:42.882Z,7.05
2018-03-21T10:31:42.803Z,7.05
2018-03-21T10:32:42.718Z,7.08
2018-03-21T10:33:42.649Z,7.12
2018-03-21T10:34:42.569Z,7.16
2018-03-21T10:35:42.497Z,7.24
2018-03-21T10:36:42.417Z,7.27
2018-03-21T10:37:42.345Z,7.27
2018-03-21T10:38:42.263Z,7.37
2018-03-21T10:39:42.193Z,7.49
2018-03-21T10:40:42.112Z,7.56
2018-03-21T10:41:42.038Z,7.82
2018-03-21T10:42:41.972Z,7.90
2018-03-21T10:43:41.911Z,7.88
2018-03-21T10:44:41.832Z,7.90
2018-03-21T10:45:41.730Z,7.91
2018-03-21T10:46:41.650Z,7.94
2018-03-21T10:47:41.582Z,7.75
2018-03-21T10:48:41.499Z,7.63
2018-03-21T10:49:41.429Z,7.56
2018-03-21T10:50:41.351Z,7.52
2018-03-21T10:51:41.278Z,7.38
2018-03-21T10:52:41.193Z,7.35
2018-03-21T10:53:41.125Z,7.29
2018-03-21T10:54:41.048Z,7.29
2018-03-21T10:55:40.974Z,7.20
2018-03-21T10:56:40.885Z,7.12
2018-03-21T10:57:40.820Z,7.19
2018-03-21T10:58:40.736Z,7.11
2018-03-21T10:59:40.683Z,7.24
2018-03-21T11:00:40.585Z,7.35
2018-03-21T11:01:40.514Z,7.44
2018-03-21T11:02:40.438Z,7.62
2018-03-21T11:03:40.360Z,7.67
2018-03-21T11:04:40.280Z,7.88
2018-03-21T11:05:40.209Z,7.81
2018-03-21T11:06:40.130Z,7.67
2018-03-21T11:07:40.068Z,7.68
2018-03-21T11:08:39.974Z,7.64
2018-03-21T11:09:39.904Z,7.62
2018-03-21T11:10:39.825Z,7.67
2018-03-21T11:11:39.782Z,7.67
2018-03-21T11:12:39.672Z,7.68
2018-03-21T11:13:39.606Z,7.83
2018-03-21T11:14:39.520Z,7.85
2018-03-21T11:15:39.449Z,7.88
2018-03-21T11:16:39.365Z,7.85
2018-03-21T11:17:39.305Z,7.93
2018-03-21T11:18:39.217Z,7.99
2018-03-21T11:19:39.144Z,8.03
2018-03-21T11:20:39.062Z,8.06
2018-03-21T11:21:38.998Z,8.07
2018-03-21T11:22:38.914Z,8.03
2018-03-21T11:23:38.846Z,8.15
2018-03-21T11:24:38.757Z,8.11
2018-03-21T11:25:38.689Z,8.09
2018-03-21T11:26:38.609Z,8.09
2018-03-21T11:27:38.537Z,8.04
2018-03-21T11:28:38.452Z,8.04
2018-03-21T11:29:38.383Z,7.99
2018-03-21T11:30:38.303Z,8.03
2018-03-21T11:31:38.234Z,8.07
2018-03-21T11:32:38.150Z,8.14
2018-03-21T11:33:38.166Z,8.19
2018-03-21T11:34:37.998Z,8.03
2018-03-21T11:35:38.725Z,8.01
2018-03-21T11:36:37.849Z,8.03
2018-03-21T11:37:37.781Z,8.09
2018-03-21T11:38:37.696Z,8.19
2018-03-21T11:39:37.754Z,8.29
2018-03-21T11:40:37.545Z,8.37
2018-03-21T11:41:37.519Z,8.43
2018-03-21T11:42:37.392Z,8.40
2018-03-21T11:43:37.327Z,8.39
2018-03-21T11:44:37.240Z,8.29
2018-03-21T11:45:37.170Z,8.19
2018-03-21T11:46:37.090Z,8.11
2018-03-21T11:47:37.018Z,8.14
2018-03-21T11:48:36.937Z,8.04
2018-03-21T11:49:36.955Z,8.03
2018-03-21T11:50:36.788Z,7.79
2018-03-21T11:51:36.720Z,7.79
2018-03-21T11:52:36.631Z,7.94
2018-03-21T11:53:36.675Z,7.90
2018-03-21T11:54:36.487Z,7.91
2018-03-21T11:55:36.426Z,7.91
2018-03-21T11:56:36.329Z,7.91
2018-03-21T11:57:36.291Z,7.91
2018-03-21T11:58:36.203Z,7.93
2018-03-21T11:59:36.205Z,7.99
2018-03-21T12:00:36.030Z,8.00
2018-03-21T12:01:36.008Z,8.03
2018-03-21T12:02:35.875Z,8.00
2018-03-21T12:03:35.829Z,8.11
2018-03-21T12:04:35.723Z,8.09
2018-03-21T12:05:35.728Z,8.14
2018-03-21T12:06:35.574Z,8.21
2018-03-21T12:07:35.504Z,8.11
2018-03-21T12:08:35.482Z,8.12
2018-03-21T12:09:35.356Z,7.94
2018-03-21T12:10:35.268Z,7.93
2018-03-21T12:11:35.258Z,7.73
2018-03-21T12:12:35.122Z,7.85
2018-03-21T12:13:35.038Z,7.75
2018-03-21T12:14:34.970Z,7.85
2018-03-21T12:15:35.083Z,7.85
2018-03-21T12:16:34.819Z,7.85
2018-03-21T12:17:35.913Z,7.81
2018-03-21T12:18:34.660Z,7.90
2018-03-21T12:19:34.794Z,7.91
2018-03-21T12:20:34.511Z,7.85
2018-03-21T12:21:34.606Z,7.86
2018-03-21T12:22:34.363Z,7.91
2018-03-21T12:23:34.415Z,7.96
2018-03-21T12:24:34.205Z,7.97
2018-03-21T12:25:34.332Z,8.00
2018-03-21T12:26:34.055Z,8.06
2018-03-21T12:27:34.043Z,8.17
2018-03-21T12:28:33.902Z,8.19
2018-03-21T12:29:34.046Z,8.22
2018-03-21T12:30:33.749Z,8.30
2018-03-21T12:31:33.859Z,8.36
2018-03-21T12:32:33.596Z,8.21
2018-03-21T12:33:33.563Z,8.25
2018-03-21T12:34:33.444Z,8.18
2018-03-21T12:35:33.577Z,8.25
2018-03-21T12:36:33.295Z,8.22
2018-03-21T12:37:33.391Z,8.22
2018-03-21T12:38:33.146Z,8.25
2018-03-21T12:39:33.207Z,8.27
2018-03-21T12:40:32.996Z,8.27
2018-03-21T12:41:33.106Z,8.25
2018-03-21T12:42:32.839Z,8.25
2018-03-21T12:43:32.914Z,8.25
2018-03-21T12:44:32.690Z,8.30
2018-03-21T12:45:32.834Z,8.30
2018-03-21T12:46:32.533Z,8.25
2018-03-21T12:47:32.633Z,8.42
2018-03-21T12:48:32.386Z,8.39
2018-03-21T12:49:32.343Z,8.52
2018-03-21T12:50:32.230Z,8.50
2018-03-21T12:51:32.358Z,8.33
2018-03-21T12:52:32.079Z,8.15
2018-03-21T12:53:32.063Z,8.19
2018-03-21T12:54:31.928Z,8.21
2018-03-21T12:55:31.974Z,8.07
2018-03-21T12:56:31.778Z,8.07
2018-03-21T12:57:31.782Z,8.24
2018-03-21T12:58:31.632Z,8.24
2018-03-21T12:59:31.590Z,8.25
2018-03-21T13:00:31.472Z,8.25
2018-03-21T13:01:31.508Z,8.33